Time;durP1;ratioP1;P1;durP2;ratioP2;P2;SDS_P1;SDS_P2;PMS_P1;PMS_P2;Temp;Humidity;BMP_temperature;BMP_pressure;BME280_temperature;BME280_humidity;BME280_pressure;Samples;Min_cycle;Max_cycle;Signal;HPM_P1;HPM_P2
2021/08/01 00:00:30;;;;;;;14.38;12.85;;;;;;;;;;2095838;28;20546;-59
2021/08/01 00:01:31;;;;;;;13.05;11.75;;;;;;;;;;2091405;28;20182;-59
2021/08/01 00:02:31;;;;;;;14.10;12.60;;;;;;;;;;2097974;28;20689;-56
2021/08/01 00:03:32;;;;;;;12.88;11.35;;;;;;;;;;2087712;28;20599;-56
2021/08/01 00:04:32;;;;;;;14.98;13.40;;;;;;;;;;2096949;28;20180;-58
2021/08/01 00:05:32;;;;;;;14.23;12.52;;;;;;;;;;2088685;28;20199;-56
2021/08/01 00:06:32;;;;;;;16.88;13.13;;;;;;;;;;2082649;28;20211;-57
2021/08/01 00:07:33;;;;;;;16.17;12.57;;;;;;;;;;2082556;28;20727;-57
2021/08/01 00:08:34;;;;;;;15.98;12.40;;;;;;;;;;2095013;28;20183;-57
2021/08/01 00:09:34;;;;;;;17.38;12.10;;;;;;;;;;2097411;28;20183;-58
2021/08/01 00:10:34;;;;;;;14.07;12.55;;;;;;;;;;2092576;28;20202;-55
2021/08/01 00:11:34;;;;;;;15.98;12.73;;;;;;;;;;2098574;28;20177;-58
2021/08/01 00:12:35;;;;;;;14.60;12.50;;;;;;;;;;2090975;28;20176;-56
2021/08/01 00:13:36;;;;;;;14.95;13.45;;;;;;;;;;2085180;28;20176;-58
2021/08/01 00:14:36;;;;;;;16.27;12.80;;;;;;;;;;2096745;28;20175;-61
2021/08/01 00:15:36;;;;;;;16.55;13.52;;;;;;;;;;2091517;28;20254;-58
2021/08/01 00:16:36;;;;;;;14.63;12.27;;;;;;;;;;2088464;28;20182;-59
2021/08/01 00:17:37;;;;;;;15.38;13.60;;;;;;;;;;2096933;28;20197;-55
2021/08/01 00:18:37;;;;;;;13.98;12.55;;;;;;;;;;2096379;28;20239;-58
2021/08/01 00:19:37;;;;;;;18.70;12.07;;;;;;;;;;2087888;28;20205;-58
2021/08/01 00:20:37;;;;;;;15.95;13.15;;;;;;;;;;2086061;28;20871;-59
2021/08/01 00:21:38;;;;;;;18.13;13.98;;;;;;;;;;2089481;28;20643;-59
2021/08/01 00:22:38;;;;;;;17.40;13.27;;;;;;;;;;2079806;28;20216;-59
2021/08/01 00:23:38;;;;;;;17.55;13.75;;;;;;;;;;2097344;28;20254;-57
2021/08/01 00:24:38;;;;;;;16.30;14.32;;;;;;;;;;2095170;28;20210;-57
2021/08/01 00:25:39;;;;;;;17.02;13.80;;;;;;;;;;2098808;28;20166;-58
2021/08/01 00:26:39;;;;;;;18.40;14.57;;;;;;;;;;2086980;28;20168;-58
2021/08/01 00:27:40;;;;;;;18.27;14.23;;;;;;;;;;2081797;28;20947;-59
2021/08/01 00:28:40;;;;;;;17.08;13.90;;;;;;;;;;2078023;28;20263;-60
2021/08/01 00:29:40;;;;;;;20.08;14.30;;;;;;;;;;2089723;28;20264;-59
2021/08/01 00:30:41;;;;;;;18.50;15.40;;;;;;;;;;2078873;28;20673;-58
2021/08/01 00:31:41;;;;;;;19.55;14.82;;;;;;;;;;2098925;28;20210;-60
2021/08/01 00:32:43;;;;;;;18.40;14.32;;;;;;;;;;2092500;28;20175;-58
2021/08/01 00:33:43;;;;;;;18.05;14.82;;;;;;;;;;2090229;28;20179;-56
2021/08/01 00:34:43;;;;;;;17.65;13.05;;;;;;;;;;2084159;28;20271;-57
2021/08/01 00:35:43;;;;;;;17.95;14.27;;;;;;;;;;2099040;28;20232;-57
2021/08/01 00:36:44;;;;;;;16.35;13.27;;;;;;;;;;2085983;28;20632;-55
2021/08/01 00:37:45;;;;;;;15.93;14.10;;;;;;;;;;2086195;28;20901;-58
2021/08/01 00:38:45;;;;;;;18.23;15.18;;;;;;;;;;2097231;28;20663;-57
2021/08/01 00:39:46;;;;;;;19.75;14.25;;;;;;;;;;2093346;28;20203;-49
2021/08/01 00:40:46;;;;;;;17.00;14.13;;;;;;;;;;2089119;28;20256;-55
2021/08/01 00:41:47;;;;;;;16.45;14.40;;;;;;;;;;2083531;28;20202;-59
2021/08/01 00:42:47;;;;;;;18.80;13.75;;;;;;;;;;2086824;28;20232;-55
2021/08/01 00:43:47;;;;;;;17.25;14.00;;;;;;;;;;2086452;28;20184;-55
2021/08/01 00:44:48;;;;;;;17.73;14.00;;;;;;;;;;2086085;28;20187;-56
2021/08/01 00:45:49;;;;;;;18.95;13.57;;;;;;;;;;2094352;28;20183;-55
2021/08/01 00:46:49;;;;;;;15.63;13.98;;;;;;;;;;2086140;28;20226;-53
2021/08/01 00:47:49;;;;;;;17.75;14.43;;;;;;;;;;2097780;28;20194;-57
2021/08/01 00:48:50;;;;;;;18.98;13.82;;;;;;;;;;2086664;28;20196;-56
2021/08/01 00:49:51;;;;;;;20.50;15.52;;;;;;;;;;2083747;28;20173;-58
2021/08/01 00:50:52;;;;;;;19.67;15.27;;;;;;;;;;2086949;28;20207;-55
2021/08/01 00:51:55;;;;;;;18.08;14.18;;;;;;;;;;2083214;28;20688;-56
2021/08/01 00:52:57;;;;;;;18.80;14.60;;;;;;;;;;2090452;28;20180;-58
2021/08/01 00:53:59;;;;;;;16.83;13.43;;;;;;;;;;2083709;28;20175;-57
2021/08/01 00:54:59;;;;;;;20.13;15.55;;;;;;;;;;2076812;28;20177;-58
2021/08/01 00:56:01;;;;;;;18.85;14.98;;;;;;;;;;2083982;28;20712;-59
2021/08/01 00:57:02;;;;;;;19.48;14.63;;;;;;;;;;2087347;28;20179;-55
2021/08/01 00:58:02;;;;;;;19.98;14.77;;;;;;;;;;2084530;28;20226;-62
2021/08/01 00:59:02;;;;;;;19.15;15.30;;;;;;;;;;2096200;28;20257;-57
2021/08/01 01:00:04;;;;;;;17.15;14.40;;;;;;;;;;2087784;28;20532;-56
2021/08/01 01:01:07;;;;;;;17.08;14.20;;;;;;;;;;2075985;28;20230;-54
2021/08/01 01:02:15;;;;;;;17.60;14.48;;;;;;;;;;2084790;28;20659;-57
2021/08/01 01:03:19;;;;;;;19.27;14.73;;;;;;;;;;2088252;28;20221;-54
2021/08/01 01:04:24;;;;;;;19.33;15.52;;;;;;;;;;2088414;28;20210;-56
2021/08/01 01:05:30;;;;;;;21.02;17.55;;;;;;;;;;2083662;28;20695;-53
2021/08/01 01:06:31;;;;;;;21.95;16.98;;;;;;;;;;2088632;28;20203;-57
2021/08/01 01:07:37;;;;;;;19.13;15.35;;;;;;;;;;2089456;28;20187;-57
2021/08/01 01:08:42;;;;;;;21.05;14.88;;;;;;;;;;2091651;28;20180;-54
2021/08/01 01:09:56;;;;;;;23.17;16.52;;;;;;;;;;2086745;28;20184;-54
2021/08/01 01:11:13;;;;;;;21.15;16.38;;;;;;;;;;2086812;28;20563;-52
2021/08/01 01:12:15;;;;;;;22.55;17.38;;;;;;;;;;2078279;28;20612;-52
2021/08/01 01:13:20;;;;;;;20.10;15.63;;;;;;;;;;2091106;28;20690;-57
2021/08/01 01:14:22;;;;;;;20.75;16.45;;;;;;;;;;2091690;28;20178;-55
2021/08/01 01:15:24;;;;;;;19.45;16.75;;;;;;;;;;2090256;28;20603;-57
2021/08/01 01:16:25;;;;;;;21.65;16.00;;;;;;;;;;2084379;28;20194;-57
2021/08/01 01:17:29;;;;;;;18.00;15.70;;;;;;;;;;2079782;28;20643;-59
2021/08/01 01:18:35;;;;;;;21.70;16.17;;;;;;;;;;2083275;28;20184;-56
2021/08/01 01:19:54;;;;;;;20.63;15.63;;;;;;;;;;2090593;28;20204;-56
2021/08/01 01:21:01;;;;;;;19.95;15.23;;;;;;;;;;2076435;28;20729;-57
2021/08/01 01:22:18;;;;;;;19.73;15.20;;;;;;;;;;2077485;28;20357;-58
2021/08/01 01:23:41;;;;;;;18.25;15.40;;;;;;;;;;2088935;28;20175;-56
2021/08/01 01:24:52;;;;;;;20.02;16.35;;;;;;;;;;2083722;28;20203;-58
2021/08/01 01:26:02;;;;;;;19.40;16.77;;;;;;;;;;2094149;28;20193;-58
2021/08/01 01:27:04;;;;;;;20.08;15.50;;;;;;;;;;2083697;28;20811;-57
2021/08/01 01:28:16;;;;;;;18.05;15.65;;;;;;;;;;2075852;28;20271;-55
2021/08/01 01:29:19;;;;;;;21.10;15.65;;;;;;;;;;2076027;28;20637;-55
2021/08/01 01:30:19;;;;;;;15.77;14.07;;;;;;;;;;2086249;28;20218;-54
2021/08/01 01:31:25;;;;;;;20.27;15.25;;;;;;;;;;2080470;28;20263;-54
2021/08/01 01:32:33;;;;;;;20.52;14.13;;;;;;;;;;2085443;28;20202;-53
2021/08/01 01:33:35;;;;;;;17.20;14.57;;;;;;;;;;2086374;28;20155;-51
2021/08/01 01:34:39;;;;;;;18.38;15.18;;;;;;;;;;2079837;28;20173;-56
2021/08/01 01:35:43;;;;;;;18.48;14.10;;;;;;;;;;2082917;28;20172;-56
2021/08/01 01:36:46;;;;;;;17.83;14.15;;;;;;;;;;2075469;28;20267;-59
2021/08/01 01:37:50;;;;;;;20.60;15.38;;;;;;;;;;2097784;28;20734;-54
2021/08/01 01:39:10;;;;;;;18.02;14.50;;;;;;;;;;2081745;28;20648;-55
2021/08/01 01:40:43;;;;;;;17.05;14.23;;;;;;;;;;2056210;28;20696;-55
2021/08/01 01:41:59;;;;;;;21.38;15.70;;;;;;;;;;2086717;28;20191;-53
2021/08/01 01:43:11;;;;;;;20.27;14.60;;;;;;;;;;2076932;28;20153;-56
2021/08/01 01:44:12;;;;;;;21.27;15.85;;;;;;;;;;2074546;28;20238;-55
2021/08/01 01:45:18;;;;;;;21.88;16.45;;;;;;;;;;2080654;28;22537;-54
2021/08/01 01:46:19;;;;;;;22.63;15.27;;;;;;;;;;2090386;28;20199;-58
2021/08/01 01:47:20;;;;;;;23.58;16.42;;;;;;;;;;2083762;28;20168;-54
2021/08/01 01:48:21;;;;;;;20.20;15.73;;;;;;;;;;2085160;28;20171;-53
2021/08/01 01:49:22;;;;;;;21.25;16.55;;;;;;;;;;2084350;28;20176;-58
2021/08/01 01:50:30;;;;;;;23.38;15.68;;;;;;;;;;2078430;28;20286;-55
2021/08/01 01:51:32;;;;;;;22.20;16.73;;;;;;;;;;2072794;28;20243;-54
2021/08/01 01:52:33;;;;;;;20.75;16.52;;;;;;;;;;2086648;28;20198;-56
2021/08/01 01:53:41;;;;;;;23.85;16.77;;;;;;;;;;2089788;28;20211;-54
2021/08/01 01:54:44;;;;;;;27.00;16.50;;;;;;;;;;2097547;28;20219;-51
2021/08/01 01:55:46;;;;;;;25.55;17.88;;;;;;;;;;2067536;28;20564;-53
2021/08/01 01:56:47;;;;;;;18.80;15.85;;;;;;;;;;2080958;28;20222;-56
2021/08/01 01:57:48;;;;;;;22.73;17.33;;;;;;;;;;2087973;28;20277;-57
2021/08/01 01:58:49;;;;;;;23.35;17.10;;;;;;;;;;2080281;28;20187;-54
2021/08/01 01:59:50;;;;;;;25.48;18.90;;;;;;;;;;2081316;28;20180;-54
2021/08/01 02:00:52;;;;;;;25.65;18.48;;;;;;;;;;2083300;28;20627;-53
2021/08/01 02:01:52;;;;;;;28.23;20.08;;;;;;;;;;2091478;28;20262;-55
2021/08/01 02:02:53;;;;;;;24.73;19.23;;;;;;;;;;2088163;28;20215;-55
2021/08/01 02:04:09;;;;;;;32.30;21.10;;;;;;;;;;2081225;28;20214;-52
2021/08/01 02:05:28;;;;;;;26.90;19.65;;;;;;;;;;2089436;28;20635;-54
2021/08/01 02:07:00;;;;;;;25.88;18.42;;;;;;;;;;2088064;28;20191;-56
2021/08/01 02:08:08;;;;;;;28.73;20.23;;;;;;;;;;2078390;28;20244;-56
2021/08/01 02:09:43;;;;;;;29.80;20.65;;;;;;;;;;2092928;28;20743;-53
2021/08/01 02:10:55;;;;;;;30.38;22.27;;;;;;;;;;2089904;28;20222;-57
2021/08/01 02:11:56;;;;;;;33.55;21.45;;;;;;;;;;2085047;28;20713;-53
2021/08/01 02:13:08;;;;;;;33.70;22.25;;;;;;;;;;2072982;28;20180;-55
2021/08/01 02:14:18;;;;;;;28.75;20.58;;;;;;;;;;2084442;28;20168;-58
2021/08/01 02:15:24;;;;;;;27.25;20.63;;;;;;;;;;2085804;28;20263;-58
2021/08/01 02:16:33;;;;;;;33.90;22.35;;;;;;;;;;2086490;28;20282;-57
2021/08/01 02:17:49;;;;;;;29.40;21.50;;;;;;;;;;2073264;28;20192;-59
2021/08/01 02:18:52;;;;;;;31.92;21.50;;;;;;;;;;2083154;28;20684;-58
2021/08/01 02:19:53;;;;;;;33.35;21.45;;;;;;;;;;2077590;28;20239;-59
2021/08/01 02:20:56;;;;;;;27.27;19.55;;;;;;;;;;2073710;28;20230;-58
2021/08/01 02:22:03;;;;;;;29.88;21.60;;;;;;;;;;2078824;28;20181;-57
2021/08/01 02:23:06;;;;;;;29.20;20.80;;;;;;;;;;2081732;28;20307;-54
2021/08/01 02:24:07;;;;;;;30.73;21.33;;;;;;;;;;2084126;28;20167;-55
2021/08/01 02:25:12;;;;;;;32.08;21.55;;;;;;;;;;2088965;28;20184;-55
2021/08/01 02:26:13;;;;;;;30.77;22.20;;;;;;;;;;2081018;28;20196;-58
2021/08/01 02:27:14;;;;;;;35.28;23.10;;;;;;;;;;2078042;28;20192;-59
2021/08/01 02:28:16;;;;;;;30.63;22.55;;;;;;;;;;2084825;28;20202;-57
2021/08/01 02:29:17;;;;;;;27.15;20.42;;;;;;;;;;2089149;28;20167;-58
2021/08/01 02:30:18;;;;;;;32.15;22.75;;;;;;;;;;2084693;28;20544;-58
2021/08/01 02:31:19;;;;;;;36.90;24.50;;;;;;;;;;2086826;28;20179;-59
2021/08/01 02:32:19;;;;;;;29.42;21.20;;;;;;;;;;2084481;28;20168;-59
2021/08/01 02:33:20;;;;;;;28.63;20.25;;;;;;;;;;2083630;28;20172;-57
2021/08/01 02:34:21;;;;;;;31.08;20.38;;;;;;;;;;2090362;28;20249;-57
2021/08/01 02:35:22;;;;;;;30.10;20.13;;;;;;;;;;2090286;28;20190;-59
2021/08/01 02:36:23;;;;;;;29.02;19.73;;;;;;;;;;2086499;28;20245;-64
2021/08/01 02:38:35;;;;;;;29.77;20.30;;;;;;;;;;2081779;28;20227;-51
2021/08/01 02:39:36;;;;;;;27.08;19.92;;;;;;;;;;2082250;28;20879;-52
2021/08/01 02:40:37;;;;;;;29.80;21.38;;;;;;;;;;2083364;28;20256;-51
2021/08/01 02:41:38;;;;;;;29.95;21.63;;;;;;;;;;2087219;28;20183;-51
2021/08/01 02:42:43;;;;;;;28.52;20.95;;;;;;;;;;2080195;28;20214;-50
2021/08/01 02:43:44;;;;;;;36.83;24.52;;;;;;;;;;2083624;28;20210;-51
2021/08/01 02:44:46;;;;;;;36.20;23.67;;;;;;;;;;2072195;28;20184;-52
2021/08/01 02:45:48;;;;;;;34.63;23.70;;;;;;;;;;2078663;28;20184;-50
2021/08/01 02:46:50;;;;;;;32.85;22.55;;;;;;;;;;2086136;28;20767;-51
2021/08/01 02:47:51;;;;;;;39.00;25.63;;;;;;;;;;2070873;28;20227;-51
2021/08/01 02:48:55;;;;;;;37.80;25.88;;;;;;;;;;2071493;28;20173;-53
2021/08/01 02:49:59;;;;;;;36.80;25.02;;;;;;;;;;2080982;28;20706;-53
2021/08/01 02:51:03;;;;;;;40.20;25.27;;;;;;;;;;2072026;28;20168;-53
2021/08/01 02:52:10;;;;;;;41.25;25.58;;;;;;;;;;2070505;28;20638;-52
2021/08/01 02:53:11;;;;;;;40.92;24.77;;;;;;;;;;2072210;28;20642;-51
2021/08/01 02:54:14;;;;;;;32.92;24.55;;;;;;;;;;2072208;28;20234;-51
2021/08/01 02:55:15;;;;;;;33.85;24.02;;;;;;;;;;2070268;28;20256;-51
2021/08/01 02:56:19;;;;;;;39.22;25.05;;;;;;;;;;2072697;28;20646;-52
2021/08/01 02:57:22;;;;;;;34.00;23.60;;;;;;;;;;2080657;28;20176;-55
2021/08/01 02:58:24;;;;;;;38.80;25.83;;;;;;;;;;2080577;28;20195;-56
2021/08/01 02:59:26;;;;;;;43.25;26.08;;;;;;;;;;2068593;28;20235;-55
2021/08/01 03:00:27;;;;;;;40.53;26.75;;;;;;;;;;2071043;28;20173;-55
2021/08/01 03:01:30;;;;;;;34.35;24.15;;;;;;;;;;2079758;28;20636;-51
2021/08/01 03:02:31;;;;;;;38.20;26.52;;;;;;;;;;2080611;28;20222;-53
2021/08/01 03:03:35;;;;;;;36.70;24.92;;;;;;;;;;2080407;28;20171;-53
2021/08/01 03:04:39;;;;;;;34.95;24.17;;;;;;;;;;2071123;28;20632;-51
2021/08/01 03:05:41;;;;;;;40.75;25.98;;;;;;;;;;2072553;28;20184;-51
2021/08/01 03:06:42;;;;;;;43.25;26.13;;;;;;;;;;2072913;28;20250;-50
2021/08/01 03:07:47;;;;;;;38.13;27.52;;;;;;;;;;2070768;28;20267;-55
2021/08/01 03:08:48;;;;;;;40.05;27.23;;;;;;;;;;2061364;28;20181;-55
2021/08/01 03:09:49;;;;;;;37.10;27.13;;;;;;;;;;2057813;28;20217;-54
2021/08/01 03:10:50;;;;;;;39.55;27.10;;;;;;;;;;2065853;28;20728;-55
2021/08/01 03:12:05;;;;;;;42.92;27.00;;;;;;;;;;2072718;28;20168;-50
2021/08/01 03:13:08;;;;;;;39.65;27.33;;;;;;;;;;2067042;28;20199;-53
2021/08/01 03:14:08;;;;;;;39.15;27.02;;;;;;;;;;2069413;28;20204;-53
2021/08/01 03:15:09;;;;;;;43.40;26.08;;;;;;;;;;2081104;28;20256;-51
2021/08/01 03:16:09;;;;;;;36.00;25.17;;;;;;;;;;2077438;28;20211;-52
2021/08/01 03:17:10;;;;;;;34.63;25.23;;;;;;;;;;2081237;28;20256;-54
2021/08/01 03:18:11;;;;;;;37.03;26.23;;;;;;;;;;2077567;28;20755;-56
2021/08/01 03:19:12;;;;;;;37.67;26.02;;;;;;;;;;2077688;28;20177;-57
2021/08/01 03:20:15;;;;;;;41.63;27.10;;;;;;;;;;2071831;28;20319;-55
2021/08/01 03:21:34;;;;;;;38.72;26.30;;;;;;;;;;2074160;28;20189;-54
2021/08/01 03:22:55;;;;;;;40.25;27.10;;;;;;;;;;2081330;28;20187;-54
2021/08/01 03:23:56;;;;;;;39.75;27.83;;;;;;;;;;2073669;28;20211;-54
2021/08/01 03:25:00;;;;;;;41.83;26.58;;;;;;;;;;2075215;28;20364;-52
2021/08/01 03:26:01;;;;;;;39.58;25.90;;;;;;;;;;2082681;28;20179;-55
2021/08/01 03:27:01;;;;;;;40.63;26.13;;;;;;;;;;2065787;28;20271;-54
2021/08/01 03:28:02;;;;;;;45.17;28.52;;;;;;;;;;2065808;28;20547;-54
2021/08/01 03:29:02;;;;;;;44.22;29.60;;;;;;;;;;2069686;28;20169;-56
2021/08/01 03:30:03;;;;;;;33.50;25.52;;;;;;;;;;2074535;28;20235;-55
2021/08/01 03:31:04;;;;;;;39.55;26.67;;;;;;;;;;2080081;28;20663;-50
2021/08/01 03:32:11;;;;;;;40.65;28.20;;;;;;;;;;2082719;28;20180;-55
2021/08/01 03:33:12;;;;;;;40.92;28.27;;;;;;;;;;2081139;28;20210;-59
2021/08/01 03:34:13;;;;;;;40.08;27.73;;;;;;;;;;2082890;28;20185;-55
2021/08/01 03:35:13;;;;;;;41.92;28.65;;;;;;;;;;2081371;28;20289;-55
2021/08/01 03:36:33;;;;;;;42.10;27.48;;;;;;;;;;2079625;28;20188;-53
2021/08/01 03:37:52;;;;;;;39.67;26.20;;;;;;;;;;2074559;28;20173;-51
2021/08/01 03:39:18;;;;;;;39.95;26.17;;;;;;;;;;2079866;28;20172;-53
2021/08/01 03:40:27;;;;;;;39.90;27.08;;;;;;;;;;2080990;28;20161;-55
2021/08/01 03:41:29;;;;;;;38.25;26.83;;;;;;;;;;2078892;28;20180;-54
2021/08/01 03:42:29;;;;;;;37.53;25.63;;;;;;;;;;2079481;28;20164;-56
2021/08/01 03:43:30;;;;;;;39.25;26.52;;;;;;;;;;2078249;28;20227;-54
2021/08/01 03:44:30;;;;;;;41.20;28.23;;;;;;;;;;2063279;28;20658;-53
2021/08/01 03:45:31;;;;;;;38.95;26.98;;;;;;;;;;2057160;28;20251;-53
2021/08/01 03:46:31;;;;;;;38.53;27.08;;;;;;;;;;2068508;28;22424;-53
2021/08/01 03:47:31;;;;;;;48.10;29.65;;;;;;;;;;2070797;28;20177;-54
2021/08/01 03:48:33;;;;;;;45.80;30.27;;;;;;;;;;2073729;28;20297;-52
2021/08/01 03:49:34;;;;;;;38.80;27.38;;;;;;;;;;2071044;28;20177;-55
2021/08/01 03:50:34;;;;;;;42.75;28.55;;;;;;;;;;2076703;28;20215;-53
2021/08/01 03:51:34;;;;;;;41.88;28.65;;;;;;;;;;2079470;28;20259;-54
2021/08/01 03:52:35;;;;;;;39.10;27.58;;;;;;;;;;2072064;28;20318;-53
2021/08/01 03:53:35;;;;;;;37.40;27.45;;;;;;;;;;2063639;28;20180;-54
2021/08/01 03:54:36;;;;;;;41.08;26.73;;;;;;;;;;2067980;28;20181;-51
2021/08/01 03:55:36;;;;;;;38.90;27.58;;;;;;;;;;2080033;28;20184;-51
2021/08/01 03:56:40;;;;;;;38.92;26.20;;;;;;;;;;2076257;28;20185;-49
2021/08/01 03:57:40;;;;;;;36.58;26.27;;;;;;;;;;2080507;28;20311;-50
2021/08/01 03:58:40;;;;;;;38.03;26.45;;;;;;;;;;2074743;28;20711;-51
2021/08/01 03:59:40;;;;;;;37.08;26.52;;;;;;;;;;2079676;28;20255;-50
2021/08/01 04:00:48;;;;;;;35.92;25.10;;;;;;;;;;2081152;28;20215;-51
2021/08/01 04:01:48;;;;;;;36.58;24.95;;;;;;;;;;2081957;28;20184;-54
2021/08/01 04:02:48;;;;;;;35.00;24.52;;;;;;;;;;2081174;28;20727;-51
2021/08/01 04:03:48;;;;;;;37.42;25.38;;;;;;;;;;2081293;28;20180;-56
2021/08/01 04:04:49;;;;;;;37.80;26.67;;;;;;;;;;2074143;28;20177;-50
2021/08/01 04:05:49;;;;;;;36.38;25.90;;;;;;;;;;2079084;28;20184;-52
2021/08/01 04:06:49;;;;;;;35.20;27.17;;;;;;;;;;2073400;28;20629;-52
2021/08/01 04:07:49;;;;;;;35.50;25.70;;;;;;;;;;2080159;28;20172;-50
2021/08/01 04:08:50;;;;;;;35.58;24.75;;;;;;;;;;2081034;28;20184;-50
2021/08/01 04:09:50;;;;;;;33.38;24.40;;;;;;;;;;2081175;28;20168;-50
2021/08/01 04:10:50;;;;;;;34.88;26.42;;;;;;;;;;2080778;28;20181;-52
2021/08/01 04:11:50;;;;;;;39.55;25.90;;;;;;;;;;2079576;28;20160;-51
2021/08/01 04:12:51;;;;;;;36.40;25.00;;;;;;;;;;2081199;28;20559;-52
2021/08/01 04:13:51;;;;;;;37.38;24.83;;;;;;;;;;2078438;28;20191;-52
2021/08/01 04:14:51;;;;;;;41.40;26.33;;;;;;;;;;2081653;28;20215;-52
2021/08/01 04:15:52;;;;;;;36.92;24.30;;;;;;;;;;2073528;28;20729;-52
2021/08/01 04:16:52;;;;;;;33.42;25.25;;;;;;;;;;2074077;28;20177;-55
2021/08/01 04:17:52;;;;;;;36.72;25.13;;;;;;;;;;2079349;28;20204;-53
2021/08/01 04:18:52;;;;;;;34.33;25.33;;;;;;;;;;2079843;28;20169;-53
2021/08/01 04:19:53;;;;;;;34.80;25.65;;;;;;;;;;2082009;28;20180;-56
2021/08/01 04:20:53;;;;;;;32.50;24.27;;;;;;;;;;2078496;28;20183;-56
2021/08/01 04:21:53;;;;;;;32.65;24.63;;;;;;;;;;2082030;28;20187;-52
2021/08/01 04:22:54;;;;;;;34.53;24.52;;;;;;;;;;2081306;28;20207;-52
2021/08/01 04:23:54;;;;;;;36.00;25.38;;;;;;;;;;2078454;28;20255;-52
2021/08/01 04:24:54;;;;;;;33.92;24.42;;;;;;;;;;2082400;28;20171;-54
2021/08/01 04:25:54;;;;;;;32.72;24.45;;;;;;;;;;2081865;28;20172;-55
2021/08/01 04:26:56;;;;;;;35.40;23.60;;;;;;;;;;2082084;28;20212;-53
2021/08/01 04:27:56;;;;;;;34.05;24.40;;;;;;;;;;2081825;28;20568;-51
2021/08/01 04:28:57;;;;;;;36.53;25.45;;;;;;;;;;2073261;28;20200;-52
2021/08/01 04:29:58;;;;;;;39.75;28.00;;;;;;;;;;2073321;28;20186;-55
2021/08/01 04:30:58;;;;;;;35.78;26.42;;;;;;;;;;2078605;28;20173;-51
2021/08/01 04:31:59;;;;;;;38.67;26.77;;;;;;;;;;2081632;28;20179;-52
2021/08/01 04:32:59;;;;;;;36.47;26.77;;;;;;;;;;2081438;28;20234;-51
2021/08/01 04:33:59;;;;;;;40.30;27.80;;;;;;;;;;2079830;28;20165;-51
2021/08/01 04:35:01;;;;;;;42.50;28.77;;;;;;;;;;2077344;28;20173;-51
2021/08/01 04:36:01;;;;;;;42.20;30.35;;;;;;;;;;2082149;28;20168;-57
2021/08/01 04:37:01;;;;;;;39.03;28.83;;;;;;;;;;2081758;28;20678;-55
2021/08/01 04:38:01;;;;;;;42.60;29.27;;;;;;;;;;2081535;28;20219;-53
2021/08/01 04:39:02;;;;;;;44.75;30.40;;;;;;;;;;2081930;28;20219;-52
2021/08/01 04:40:02;;;;;;;42.78;29.92;;;;;;;;;;2078915;28;20181;-53
2021/08/01 04:41:02;;;;;;;44.92;29.60;;;;;;;;;;2072390;28;20203;-50
2021/08/01 04:42:03;;;;;;;44.55;30.67;;;;;;;;;;2071703;28;20197;-52
2021/08/01 04:43:03;;;;;;;40.55;29.15;;;;;;;;;;2082311;28;20259;-52
2021/08/01 04:44:03;;;;;;;40.50;28.48;;;;;;;;;;2081035;28;20872;-54
2021/08/01 04:45:04;;;;;;;40.85;28.75;;;;;;;;;;2081341;28;21132;-51
2021/08/01 04:46:04;;;;;;;45.33;30.73;;;;;;;;;;2081442;28;20200;-53
2021/08/01 04:47:05;;;;;;;39.30;27.77;;;;;;;;;;2078997;28;20171;-55
2021/08/01 04:48:05;;;;;;;44.75;28.67;;;;;;;;;;2081428;28;20200;-51
2021/08/01 04:49:06;;;;;;;40.22;27.92;;;;;;;;;;2073620;28;20275;-54
2021/08/01 04:50:06;;;;;;;39.83;28.67;;;;;;;;;;2073237;28;20177;-53
2021/08/01 04:51:06;;;;;;;42.70;27.85;;;;;;;;;;2082105;28;20267;-52
2021/08/01 04:52:07;;;;;;;35.15;26.33;;;;;;;;;;2079854;28;20653;-52
2021/08/01 04:53:07;;;;;;;34.42;25.48;;;;;;;;;;2078184;28;20176;-54
2021/08/01 04:54:07;;;;;;;34.45;25.65;;;;;;;;;;2081886;28;20179;-51
2021/08/01 04:55:08;;;;;;;36.58;27.48;;;;;;;;;;2070386;28;20184;-52
2021/08/01 04:56:09;;;;;;;36.47;27.05;;;;;;;;;;2068819;28;20657;-52
2021/08/01 04:57:09;;;;;;;33.13;26.08;;;;;;;;;;2073358;28;20173;-52
2021/08/01 04:58:09;;;;;;;33.70;25.23;;;;;;;;;;2076835;28;20196;-53
2021/08/01 04:59:10;;;;;;;36.30;26.52;;;;;;;;;;2075075;28;20207;-52
2021/08/01 05:00:11;;;;;;;35.20;26.65;;;;;;;;;;2073749;28;20173;-52
2021/08/01 05:01:11;;;;;;;34.70;26.23;;;;;;;;;;2073263;28;20217;-52
2021/08/01 05:02:12;;;;;;;33.55;26.27;;;;;;;;;;2081972;28;20219;-52
2021/08/01 05:03:12;;;;;;;33.83;25.58;;;;;;;;;;2079521;28;20255;-50
2021/08/01 05:04:13;;;;;;;35.42;26.95;;;;;;;;;;2079980;28;20194;-52
2021/08/01 05:05:13;;;;;;;33.42;25.60;;;;;;;;;;2082809;28;20164;-53
2021/08/01 05:06:13;;;;;;;33.28;25.40;;;;;;;;;;2078740;28;20688;-51
2021/08/01 05:07:13;;;;;;;34.13;26.42;;;;;;;;;;2065372;28;20579;-53
2021/08/01 05:08:14;;;;;;;35.10;26.02;;;;;;;;;;2065240;28;20714;-54
2021/08/01 05:09:14;;;;;;;32.22;25.05;;;;;;;;;;2081284;28;20180;-55
2021/08/01 05:10:14;;;;;;;34.65;26.45;;;;;;;;;;2082564;28;20199;-54
2021/08/01 05:11:14;;;;;;;32.38;26.02;;;;;;;;;;2076790;28;20209;-54
2021/08/01 05:12:16;;;;;;;36.67;27.02;;;;;;;;;;2075239;28;20173;-51
2021/08/01 05:13:16;;;;;;;34.42;26.85;;;;;;;;;;2074522;28;20276;-52
2021/08/01 05:14:16;;;;;;;35.85;28.02;;;;;;;;;;2074397;28;20169;-54
2021/08/01 05:15:17;;;;;;;34.47;25.52;;;;;;;;;;2074503;28;20560;-52
2021/08/01 05:16:18;;;;;;;31.90;24.58;;;;;;;;;;2074530;28;20187;-52
2021/08/01 05:17:18;;;;;;;36.35;26.58;;;;;;;;;;2074260;28;20180;-52
2021/08/01 05:18:20;;;;;;;35.85;26.55;;;;;;;;;;2074370;28;20201;-55
2021/08/01 05:19:20;;;;;;;37.65;27.77;;;;;;;;;;2081676;28;20182;-51
2021/08/01 05:20:21;;;;;;;36.13;27.17;;;;;;;;;;2078141;28;20177;-51
2021/08/01 05:21:22;;;;;;;36.08;26.45;;;;;;;;;;2073608;28;20215;-53
2021/08/01 05:22:22;;;;;;;33.47;25.58;;;;;;;;;;2077486;28;20177;-52
2021/08/01 05:23:22;;;;;;;34.90;25.67;;;;;;;;;;2075339;28;20181;-51
2021/08/01 05:24:22;;;;;;;33.25;25.60;;;;;;;;;;2074188;28;20181;-51
2021/08/01 05:25:23;;;;;;;31.05;25.13;;;;;;;;;;2073029;28;20161;-53
2021/08/01 05:26:23;;;;;;;31.73;24.52;;;;;;;;;;2078527;28;20290;-55
2021/08/01 05:27:23;;;;;;;32.90;24.83;;;;;;;;;;2081273;28;20172;-54
2021/08/01 05:28:24;;;;;;;30.02;23.38;;;;;;;;;;2080619;28;20211;-54
2021/08/01 05:29:24;;;;;;;29.25;23.80;;;;;;;;;;2081035;28;20161;-54
2021/08/01 05:30:24;;;;;;;32.22;24.65;;;;;;;;;;2080811;28;20900;-54
2021/08/01 05:31:24;;;;;;;29.90;24.80;;;;;;;;;;2080907;28;20259;-54
2021/08/01 05:32:25;;;;;;;29.65;24.23;;;;;;;;;;2080474;28;20180;-54
2021/08/01 05:33:26;;;;;;;28.88;23.52;;;;;;;;;;2079393;28;20637;-53
2021/08/01 05:34:27;;;;;;;31.33;24.63;;;;;;;;;;2076784;28;20181;-50
2021/08/01 05:35:27;;;;;;;26.77;23.17;;;;;;;;;;2081837;28;20247;-53
2021/08/01 05:36:30;;;;;;;28.98;23.35;;;;;;;;;;2081264;28;20183;-52
2021/08/01 05:37:30;;;;;;;31.85;23.63;;;;;;;;;;2078724;28;20660;-51
2021/08/01 05:38:30;;;;;;;29.35;23.15;;;;;;;;;;2081244;28;20212;-53
2021/08/01 05:39:32;;;;;;;27.52;23.75;;;;;;;;;;2081188;28;20667;-52
2021/08/01 05:40:33;;;;;;;28.23;22.52;;;;;;;;;;2078056;28;20185;-55
2021/08/01 05:41:33;;;;;;;28.58;21.98;;;;;;;;;;2079669;28;20255;-52
2021/08/01 05:42:33;;;;;;;28.23;22.58;;;;;;;;;;2075746;28;20538;-53
2021/08/01 05:43:34;;;;;;;27.13;21.98;;;;;;;;;;2079919;28;20168;-51
2021/08/01 05:44:34;;;;;;;29.45;22.55;;;;;;;;;;2081340;28;20215;-53
2021/08/01 05:45:34;;;;;;;27.52;22.10;;;;;;;;;;2081385;28;20271;-52
2021/08/01 05:46:34;;;;;;;27.77;22.27;;;;;;;;;;2081974;28;20299;-55
2021/08/01 05:47:38;;;;;;;25.88;22.27;;;;;;;;;;2078957;28;20190;-52
2021/08/01 05:48:38;;;;;;;32.88;24.08;;;;;;;;;;2076013;28;20176;-54
2021/08/01 05:49:38;;;;;;;24.30;21.27;;;;;;;;;;2081187;28;20606;-54
2021/08/01 05:50:39;;;;;;;25.73;21.65;;;;;;;;;;2077557;28;20180;-52
2021/08/01 05:51:39;;;;;;;26.30;21.15;;;;;;;;;;2072638;28;20568;-54
2021/08/01 05:52:39;;;;;;;25.13;20.15;;;;;;;;;;2068247;28;20209;-55
2021/08/01 05:53:39;;;;;;;24.58;20.17;;;;;;;;;;2072638;28;20204;-53
2021/08/01 05:54:40;;;;;;;22.48;19.70;;;;;;;;;;2064399;28;20166;-53
2021/08/01 05:55:40;;;;;;;21.33;18.40;;;;;;;;;;2072853;28;20177;-51
2021/08/01 05:56:40;;;;;;;23.75;18.95;;;;;;;;;;2081741;28;20160;-53
2021/08/01 05:57:40;;;;;;;23.90;19.35;;;;;;;;;;2078337;28;20239;-52
2021/08/01 05:58:41;;;;;;;23.85;19.50;;;;;;;;;;2065831;28;20177;-52
2021/08/01 05:59:41;;;;;;;20.52;18.33;;;;;;;;;;2065547;28;20169;-52
2021/08/01 06:00:41;;;;;;;21.15;18.13;;;;;;;;;;2064976;28;20169;-55
2021/08/01 06:01:42;;;;;;;22.48;18.25;;;;;;;;;;2073432;28;20177;-51
2021/08/01 06:02:42;;;;;;;20.73;17.88;;;;;;;;;;2080258;28;20207;-51
2021/08/01 06:03:43;;;;;;;19.73;17.63;;;;;;;;;;2081810;28;20211;-54
2021/08/01 06:04:43;;;;;;;20.88;17.10;;;;;;;;;;2081858;28;20190;-52